sensor_id;sensor_type;location;lat;lon;timestamp;pressure;altitude;pressure_sealevel;temperature;humidity
75933;BME280;64803;52.356;5.310;2023-02-24T00:01:18;101991.22;;;3.32;96.93
75933;BME280;64803;52.356;5.310;2023-02-24T00:03:57;101983.88;;;3.23;96.40
75933;BME280;64803;52.356;5.310;2023-02-24T00:06:24;101975.03;;;3.10;97.24
75933;BME280;64803;52.356;5.310;2023-02-24T00:08:51;101980.97;;;3.01;98.63
75933;BME280;64803;52.356;5.310;2023-02-24T00:11:18;101927.75;;;2.51;99.33
75933;BME280;64803;52.356;5.310;2023-02-24T00:13:44;101948.94;;;2.51;100.00
75933;BME280;64803;52.356;5.310;2023-02-24T00:16:15;101975.78;;;2.73;100.00
75933;BME280;64803;52.356;5.310;2023-02-24T00:18:43;101972.38;;;2.71;100.00
75933;BME280;64803;52.356;5.310;2023-02-24T00:21:13;101978.47;;;2.59;100.00
75933;BME280;64803;52.356;5.310;2023-02-24T00:23:45;101966.91;;;2.60;100.00
75933;BME280;64803;52.356;5.310;2023-02-24T00:26:13;101961.28;;;2.52;100.00
75933;BME280;64803;52.356;5.310;2023-02-24T00:28:40;101969.81;;;2.43;100.00
75933;BME280;64803;52.356;5.310;2023-02-24T00:31:09;101958.88;;;2.35;100.00
75933;BME280;64803;52.356;5.310;2023-02-24T00:33:36;101959.56;;;2.24;100.00
75933;BME280;64803;52.356;5.310;2023-02-24T00:36:17;101892.53;;;1.68;100.00
75933;BME280;64803;52.356;5.310;2023-02-24T00:38:57;101950.41;;;2.02;100.00
75933;BME280;64803;52.356;5.310;2023-02-24T00:41:26;101898.81;;;1.67;100.00
75933;BME280;64803;52.356;5.310;2023-02-24T00:43:58;101952.09;;;2.03;100.00
75933;BME280;64803;52.356;5.310;2023-02-24T00:46:34;101943.78;;;2.09;100.00
75933;BME280;64803;52.356;5.310;2023-02-24T00:49:01;101929.22;;;2.02;100.00
75933;BME280;64803;52.356;5.310;2023-02-24T00:51:34;101864.38;;;1.67;100.00
75933;BME280;64803;52.356;5.310;2023-02-24T00:54:02;101933.31;;;2.20;100.00
75933;BME280;64803;52.356;5.310;2023-02-24T00:56:29;101924.00;;;2.41;100.00
75933;BME280;64803;52.356;5.310;2023-02-24T00:58:58;101923.94;;;2.55;100.00
75933;BME280;64803;52.356;5.310;2023-02-24T01:01:30;101913.34;;;2.55;100.00
75933;BME280;64803;52.356;5.310;2023-02-24T01:04:00;101908.03;;;2.55;99.37
75933;BME280;64803;52.356;5.310;2023-02-24T01:06:31;101893.38;;;2.37;99.80
75933;BME280;64803;52.356;5.310;2023-02-24T01:08:57;101883.94;;;2.19;100.00
75933;BME280;64803;52.356;5.310;2023-02-24T01:11:31;101804.44;;;1.66;100.00
75933;BME280;64803;52.356;5.310;2023-02-24T01:14:19;101898.97;;;2.18;99.61
75933;BME280;64803;52.356;5.310;2023-02-24T01:16:46;101889.19;;;2.06;100.00
75933;BME280;64803;52.356;5.310;2023-02-24T01:19:22;101878.72;;;1.91;100.00
75933;BME280;64803;52.356;5.310;2023-02-24T01:21:49;101872.84;;;2.00;100.00
75933;BME280;64803;52.356;5.310;2023-02-24T01:24:20;101872.63;;;2.03;100.00
75933;BME280;64803;52.356;5.310;2023-02-24T01:26:47;101860.16;;;2.05;100.00
75933;BME280;64803;52.356;5.310;2023-02-24T01:29:13;101872.44;;;2.06;100.00
75933;BME280;64803;52.356;5.310;2023-02-24T01:31:39;101860.25;;;2.03;100.00
75933;BME280;64803;52.356;5.310;2023-02-24T01:34:11;101858.47;;;2.04;100.00
75933;BME280;64803;52.356;5.310;2023-02-24T01:36:40;101853.88;;;2.06;100.00
75933;BME280;64803;52.356;5.310;2023-02-24T01:39:09;101844.25;;;2.05;100.00
75933;BME280;64803;52.356;5.310;2023-02-24T01:41:36;101835.91;;;2.11;100.00
75933;BME280;64803;52.356;5.310;2023-02-24T01:44:06;101846.44;;;2.25;100.00
75933;BME280;64803;52.356;5.310;2023-02-24T01:46:37;101833.75;;;2.30;100.00
75933;BME280;64803;52.356;5.310;2023-02-24T01:49:12;101829.94;;;2.34;100.00
75933;BME280;64803;52.356;5.310;2023-02-24T01:52:11;101819.53;;;2.31;100.00
75933;BME280;64803;52.356;5.310;2023-02-24T01:54:45;101817.88;;;2.30;100.00
75933;BME280;64803;52.356;5.310;2023-02-24T01:57:16;101812.97;;;2.24;100.00
75933;BME280;64803;52.356;5.310;2023-02-24T01:59:46;101812.31;;;2.20;100.00
75933;BME280;64803;52.356;5.310;2023-02-24T02:02:14;101808.50;;;2.24;100.00
75933;BME280;64803;52.356;5.310;2023-02-24T02:07:16;101658.19;;;1.50;100.00
75933;BME280;64803;52.356;5.310;2023-02-24T02:09:44;101792.53;;;2.39;100.00
75933;BME280;64803;52.356;5.310;2023-02-24T02:12:12;101798.28;;;2.45;100.00
75933;BME280;64803;52.356;5.310;2023-02-24T02:14:41;101795.41;;;2.48;100.00
75933;BME280;64803;52.356;5.310;2023-02-24T02:17:24;101790.09;;;2.48;100.00
75933;BME280;64803;52.356;5.310;2023-02-24T02:22:54;101764.22;;;2.39;100.00
75933;BME280;64803;52.356;5.310;2023-02-24T02:26:11;101769.88;;;2.47;100.00
75933;BME280;64803;52.356;5.310;2023-02-24T02:34:13;101763.00;;;2.70;100.00
75933;BME280;64803;52.356;5.310;2023-02-24T02:36:51;101756.63;;;2.72;100.00
75933;BME280;64803;52.356;5.310;2023-02-24T02:42:09;101753.34;;;2.81;100.00
75933;BME280;64803;52.356;5.310;2023-02-24T02:47:43;101757.25;;;2.76;100.00
75933;BME280;64803;52.356;5.310;2023-02-24T02:50:17;101751.94;;;2.76;100.00
75933;BME280;64803;52.356;5.310;2023-02-24T02:52:56;101732.88;;;2.71;100.00
75933;BME280;64803;52.356;5.310;2023-02-24T02:55:46;101738.41;;;2.80;100.00
75933;BME280;64803;52.356;5.310;2023-02-24T02:58:18;101583.81;;;1.92;100.00
75933;BME280;64803;52.356;5.310;2023-02-24T03:00:54;101730.63;;;2.77;100.00
75933;BME280;64803;52.356;5.310;2023-02-24T03:03:31;101734.66;;;2.83;100.00
75933;BME280;64803;52.356;5.310;2023-02-24T03:06:22;101724.81;;;2.85;100.00
75933;BME280;64803;52.356;5.310;2023-02-24T03:09:14;101710.50;;;2.87;100.00
75933;BME280;64803;52.356;5.310;2023-02-24T03:11:42;101714.81;;;2.88;100.00
75933;BME280;64803;52.356;5.310;2023-02-24T03:14:12;101687.66;;;2.85;99.24
75933;BME280;64803;52.356;5.310;2023-02-24T03:16:43;101698.91;;;3.01;97.65
75933;BME280;64803;52.356;5.310;2023-02-24T03:19:14;101684.03;;;2.98;98.10
75933;BME280;64803;52.356;5.310;2023-02-24T03:21:49;101685.97;;;2.96;97.76
75933;BME280;64803;52.356;5.310;2023-02-24T03:24:17;101614.41;;;2.59;97.34
75933;BME280;64803;52.356;5.310;2023-02-24T03:26:50;101583.59;;;2.45;97.68
75933;BME280;64803;52.356;5.310;2023-02-24T03:29:25;101682.13;;;3.00;97.91
75933;BME280;64803;52.356;5.310;2023-02-24T03:32:03;101675.13;;;2.99;96.24
75933;BME280;64803;52.356;5.310;2023-02-24T03:34:57;101674.91;;;3.02;96.66
75933;BME280;64803;52.356;5.310;2023-02-24T03:37:30;101674.69;;;3.05;97.14
75933;BME280;64803;52.356;5.310;2023-02-24T03:40:00;101672.34;;;3.13;96.07
75933;BME280;64803;52.356;5.310;2023-02-24T03:42:33;101541.59;;;2.39;95.12
75933;BME280;64803;52.356;5.310;2023-02-24T03:45:00;101667.03;;;3.13;94.40
75933;BME280;64803;52.356;5.310;2023-02-24T03:47:27;101660.75;;;3.14;95.36
75933;BME280;64803;52.356;5.310;2023-02-24T03:49:53;101661.72;;;3.13;96.56
75933;BME280;64803;52.356;5.310;2023-02-24T03:52:28;101653.53;;;3.16;95.50
75933;BME280;64803;52.356;5.310;2023-02-24T03:58:26;101642.06;;;3.16;98.56
75933;BME280;64803;52.356;5.310;2023-02-24T04:01:07;101655.84;;;3.21;97.95
75933;BME280;64803;52.356;5.310;2023-02-24T04:06:46;101632.38;;;3.27;98.08
75933;BME280;64803;52.356;5.310;2023-02-24T04:09:39;101639.13;;;3.31;97.16
75933;BME280;64803;52.356;5.310;2023-02-24T04:12:24;101626.50;;;3.35;97.27
75933;BME280;64803;52.356;5.310;2023-02-24T04:15:02;101622.78;;;3.37;96.87
75933;BME280;64803;52.356;5.310;2023-02-24T04:20:20;101616.84;;;3.34;96.97
75933;BME280;64803;52.356;5.310;2023-02-24T04:23:02;101605.59;;;3.30;95.92
75933;BME280;64803;52.356;5.310;2023-02-24T04:25:29;101606.03;;;3.24;97.19
75933;BME280;64803;52.356;5.310;2023-02-24T04:27:58;101578.72;;;3.11;96.87
75933;BME280;64803;52.356;5.310;2023-02-24T04:30:30;101591.84;;;3.25;96.28
75933;BME280;64803;52.356;5.310;2023-02-24T04:32:58;101593.75;;;3.23;95.73
75933;BME280;64803;52.356;5.310;2023-02-24T04:35:25;101588.69;;;3.20;97.26
75933;BME280;64803;52.356;5.310;2023-02-24T04:37:52;101574.91;;;3.15;97.24
75933;BME280;64803;52.356;5.310;2023-02-24T04:40:19;101584.19;;;3.21;96.97
75933;BME280;64803;52.356;5.310;2023-02-24T04:42:50;101545.88;;;3.01;96.42
75933;BME280;64803;52.356;5.310;2023-02-24T04:47:44;101575.97;;;3.13;98.14
75933;BME280;64803;52.356;5.310;2023-02-24T04:50:20;101565.34;;;3.13;98.84
75933;BME280;64803;52.356;5.310;2023-02-24T04:53:16;101557.28;;;3.14;98.55
75933;BME280;64803;52.356;5.310;2023-02-24T04:55:44;101551.34;;;3.11;100.00
75933;BME280;64803;52.356;5.310;2023-02-24T04:58:15;101546.50;;;3.05;99.41
75933;BME280;64803;52.356;5.310;2023-02-24T05:00:50;101554.50;;;3.16;99.09
75933;BME280;64803;52.356;5.310;2023-02-24T05:03:18;101538.25;;;3.20;98.92
75933;BME280;64803;52.356;5.310;2023-02-24T05:05:51;101539.19;;;3.19;98.14
75933;BME280;64803;52.356;5.310;2023-02-24T05:08:22;101538.13;;;3.22;98.01
75933;BME280;64803;52.356;5.310;2023-02-24T05:10:48;101531.34;;;3.18;98.49
75933;BME280;64803;52.356;5.310;2023-02-24T05:13:20;101520.75;;;3.18;99.16
75933;BME280;64803;52.356;5.310;2023-02-24T05:15:50;101520.13;;;3.14;99.57
75933;BME280;64803;52.356;5.310;2023-02-24T05:18:16;101513.63;;;3.18;99.92
75933;BME280;64803;52.356;5.310;2023-02-24T05:20:44;101391.59;;;2.49;99.42
75933;BME280;64803;52.356;5.310;2023-02-24T05:23:32;101500.25;;;3.20;99.18
75933;BME280;64803;52.356;5.310;2023-02-24T05:26:03;101507.16;;;3.22;99.83
75933;BME280;64803;52.356;5.310;2023-02-24T05:28:38;101490.25;;;3.23;98.92
75933;BME280;64803;52.356;5.310;2023-02-24T05:31:07;101476.75;;;3.26;99.35
75933;BME280;64803;52.356;5.310;2023-02-24T05:33:35;101472.16;;;3.28;99.51
75933;BME280;64803;52.356;5.310;2023-02-24T05:36:07;101474.56;;;3.31;98.81
75933;BME280;64803;52.356;5.310;2023-02-24T05:38:35;101319.28;;;2.47;99.18
75933;BME280;64803;52.356;5.310;2023-02-24T05:41:07;101433.78;;;3.21;99.38
75933;BME280;64803;52.356;5.310;2023-02-24T05:43:33;101456.03;;;3.42;98.58
75933;BME280;64803;52.356;5.310;2023-02-24T05:46:01;101457.72;;;3.43;99.53
75933;BME280;64803;52.356;5.310;2023-02-24T05:48:32;101451.09;;;3.49;99.35
75933;BME280;64803;52.356;5.310;2023-02-24T05:51:03;101439.41;;;3.52;98.34
75933;BME280;64803;52.356;5.310;2023-02-24T05:53:33;101432.19;;;3.54;99.11
75933;BME280;64803;52.356;5.310;2023-02-24T05:56:00;101429.28;;;3.57;98.94
75933;BME280;64803;52.356;5.310;2023-02-24T05:58:29;101296.34;;;2.81;98.82
75933;BME280;64803;52.356;5.310;2023-02-24T06:00:57;101404.16;;;3.50;98.26
75933;BME280;64803;52.356;5.310;2023-02-24T06:03:30;101424.44;;;3.62;98.29
75933;BME280;64803;52.356;5.310;2023-02-24T06:06:01;101412.63;;;3.66;98.24
75933;BME280;64803;52.356;5.310;2023-02-24T06:08:34;101423.13;;;3.67;98.81
75933;BME280;64803;52.356;5.310;2023-02-24T06:11:10;101326.44;;;3.14;98.53
75933;BME280;64803;52.356;5.310;2023-02-24T06:13:37;101405.13;;;3.71;99.54
75933;BME280;64803;52.356;5.310;2023-02-24T06:16:05;101391.13;;;3.69;99.61
75933;BME280;64803;52.356;5.310;2023-02-24T06:18:31;101406.00;;;3.71;99.26
75933;BME280;64803;52.356;5.310;2023-02-24T06:21:01;101395.47;;;3.70;100.00
75933;BME280;64803;52.356;5.310;2023-02-24T06:23:27;101395.38;;;3.71;100.00
75933;BME280;64803;52.356;5.310;2023-02-24T06:25:53;101379.66;;;3.68;100.00
75933;BME280;64803;52.356;5.310;2023-02-24T06:28:23;101378.59;;;3.71;100.00
75933;BME280;64803;52.356;5.310;2023-02-24T06:30:49;101387.41;;;3.71;100.00
75933;BME280;64803;52.356;5.310;2023-02-24T06:33:16;101375.94;;;3.71;100.00
75933;BME280;64803;52.356;5.310;2023-02-24T06:35:43;101271.81;;;3.12;100.00
75933;BME280;64803;52.356;5.310;2023-02-24T06:38:09;101376.41;;;3.65;100.00
75933;BME280;64803;52.356;5.310;2023-02-24T06:40:35;101360.00;;;3.71;100.00
75933;BME280;64803;52.356;5.310;2023-02-24T06:43:02;101357.81;;;3.76;100.00
75933;BME280;64803;52.356;5.310;2023-02-24T06:45:28;101349.47;;;3.80;100.00
75933;BME280;64803;52.356;5.310;2023-02-24T06:47:55;101358.88;;;3.84;100.00
75933;BME280;64803;52.356;5.310;2023-02-24T06:50:22;101310.41;;;3.60;100.00
75933;BME280;64803;52.356;5.310;2023-02-24T06:52:49;101347.41;;;3.95;100.00
75933;BME280;64803;52.356;5.310;2023-02-24T06:55:15;101341.09;;;3.96;100.00
75933;BME280;64803;52.356;5.310;2023-02-24T06:57:55;101314.94;;;3.91;100.00
75933;BME280;64803;52.356;5.310;2023-02-24T07:00:27;101344.50;;;3.98;100.00
75933;BME280;64803;52.356;5.310;2023-02-24T07:03:06;101333.03;;;3.97;100.00
75933;BME280;64803;52.356;5.310;2023-02-24T07:05:45;101337.63;;;3.95;100.00
75933;BME280;64803;52.356;5.310;2023-02-24T07:08:20;101335.94;;;3.94;100.00
75933;BME280;64803;52.356;5.310;2023-02-24T07:10:54;101331.47;;;3.95;100.00
75933;BME280;64803;52.356;5.310;2023-02-24T07:13:22;101321.69;;;3.95;100.00
75933;BME280;64803;52.356;5.310;2023-02-24T07:15:50;101331.47;;;3.95;100.00
75933;BME280;64803;52.356;5.310;2023-02-24T07:18:17;101331.22;;;3.98;100.00
75933;BME280;64803;52.356;5.310;2023-02-24T07:20:44;101317.31;;;3.94;100.00
75933;BME280;64803;52.356;5.310;2023-02-24T07:23:15;101316.97;;;3.99;100.00
75933;BME280;64803;52.356;5.310;2023-02-24T07:25:43;101315.03;;;4.01;100.00
75933;BME280;64803;52.356;5.310;2023-02-24T07:28:12;101323.34;;;4.07;100.00
75933;BME280;64803;52.356;5.310;2023-02-24T07:30:40;101326.00;;;4.07;100.00
75933;BME280;64803;52.356;5.310;2023-02-24T07:33:07;101304.50;;;3.99;100.00
75933;BME280;64803;52.356;5.310;2023-02-24T07:35:33;101326.59;;;4.11;100.00
75933;BME280;64803;52.356;5.310;2023-02-24T07:38:05;101314.84;;;4.13;100.00
75933;BME280;64803;52.356;5.310;2023-02-24T07:40:32;101168.41;;;3.32;100.00
75933;BME280;64803;52.356;5.310;2023-02-24T07:42:59;101202.59;;;3.58;100.00
75933;BME280;64803;52.356;5.310;2023-02-24T07:45:26;101303.81;;;4.29;100.00
75933;BME280;64803;52.356;5.310;2023-02-24T07:47:52;101300.53;;;4.36;100.00
75933;BME280;64803;52.356;5.310;2023-02-24T07:50:18;101296.06;;;4.37;100.00
75933;BME280;64803;52.356;5.310;2023-02-24T07:52:45;101301.69;;;4.43;100.00
75933;BME280;64803;52.356;5.310;2023-02-24T07:55:12;101295.28;;;4.46;100.00
75933;BME280;64803;52.356;5.310;2023-02-24T07:57:41;101283.22;;;4.42;100.00
75933;BME280;64803;52.356;5.310;2023-02-24T08:00:14;101291.38;;;4.50;100.00
75933;BME280;64803;52.356;5.310;2023-02-24T08:02:48;101286.34;;;4.47;100.00
75933;BME280;64803;52.356;5.310;2023-02-24T08:05:15;101294.03;;;4.50;100.00
75933;BME280;64803;52.356;5.310;2023-02-24T08:07:46;101280.06;;;4.48;100.00
75933;BME280;64803;52.356;5.310;2023-02-24T08:10:19;101289.78;;;4.58;100.00
75933;BME280;64803;52.356;5.310;2023-02-24T08:12:53;101149.19;;;3.83;100.00
75933;BME280;64803;52.356;5.310;2023-02-24T08:15:24;101281.94;;;4.57;100.00
75933;BME280;64803;52.356;5.310;2023-02-24T08:17:53;101276.75;;;4.55;100.00
75933;BME280;64803;52.356;5.310;2023-02-24T08:20:20;101213.69;;;4.26;100.00
75933;BME280;64803;52.356;5.310;2023-02-24T08:22:48;101255.59;;;4.54;100.00
75933;BME280;64803;52.356;5.310;2023-02-24T08:25:21;101252.66;;;4.57;100.00
75933;BME280;64803;52.356;5.310;2023-02-24T08:27:50;101259.16;;;4.64;100.00
75933;BME280;64803;52.356;5.310;2023-02-24T08:30:25;101259.75;;;4.68;100.00
75933;BME280;64803;52.356;5.310;2023-02-24T08:32:55;101260.47;;;4.70;100.00
75933;BME280;64803;52.356;5.310;2023-02-24T08:35:27;101244.19;;;4.63;100.00
75933;BME280;64803;52.356;5.310;2023-02-24T08:38:03;101250.66;;;4.70;100.00
75933;BME280;64803;52.356;5.310;2023-02-24T08:40:33;101242.28;;;4.75;100.00
75933;BME280;64803;52.356;5.310;2023-02-24T08:43:11;101231.66;;;4.75;100.00
75933;BME280;64803;52.356;5.310;2023-02-24T08:48:43;101218.13;;;4.87;100.00
75933;BME280;64803;52.356;5.310;2023-02-24T08:54:02;101205.72;;;4.97;100.00
75933;BME280;64803;52.356;5.310;2023-02-24T08:56:30;101192.41;;;4.97;100.00
75933;BME280;64803;52.356;5.310;2023-02-24T08:59:04;101180.22;;;4.95;100.00
75933;BME280;64803;52.356;5.310;2023-02-24T09:01:35;101194.56;;;5.03;100.00
75933;BME280;64803;52.356;5.310;2023-02-24T09:04:06;101192.59;;;5.05;100.00
75933;BME280;64803;52.356;5.310;2023-02-24T09:06:47;101182.09;;;5.04;100.00
75933;BME280;64803;52.356;5.310;2023-02-24T09:09:18;101187.53;;;5.02;100.00
75933;BME280;64803;52.356;5.310;2023-02-24T09:11:58;101176.06;;;5.02;100.00
75933;BME280;64803;52.356;5.310;2023-02-24T09:14:29;101176.63;;;5.05;100.00
75933;BME280;64803;52.356;5.310;2023-02-24T09:17:03;101165.94;;;4.96;100.00
75933;BME280;64803;52.356;5.310;2023-02-24T09:22:08;101154.34;;;4.97;100.00
75933;BME280;64803;52.356;5.310;2023-02-24T09:24:55;101158.81;;;4.96;100.00
75933;BME280;64803;52.356;5.310;2023-02-24T09:27:39;101154.19;;;4.98;100.00
75933;BME280;64803;52.356;5.310;2023-02-24T09:30:12;101144.94;;;5.02;100.00
75933;BME280;64803;52.356;5.310;2023-02-24T09:32:56;101134.16;;;4.94;100.00
75933;BME280;64803;52.356;5.310;2023-02-24T09:35:26;101150.03;;;5.05;100.00
75933;BME280;64803;52.356;5.310;2023-02-24T09:37:58;101049.69;;;4.47;100.00
75933;BME280;64803;52.356;5.310;2023-02-24T09:40:32;101026.03;;;4.44;100.00
75933;BME280;64803;52.356;5.310;2023-02-24T09:43:26;101133.78;;;5.08;100.00
75933;BME280;64803;52.356;5.310;2023-02-24T09:45:57;101136.28;;;5.10;100.00
75933;BME280;64803;52.356;5.310;2023-02-24T09:48:36;101137.84;;;5.12;100.00
75933;BME280;64803;52.356;5.310;2023-02-24T09:51:13;101126.22;;;5.13;100.00
75933;BME280;64803;52.356;5.310;2023-02-24T09:53:48;101127.63;;;5.17;100.00
75933;BME280;64803;52.356;5.310;2023-02-24T09:56:35;101119.78;;;5.16;100.00
75933;BME280;64803;52.356;5.310;2023-02-24T09:59:30;101125.53;;;5.21;100.00
75933;BME280;64803;52.356;5.310;2023-02-24T10:05:14;101122.16;;;5.28;100.00
75933;BME280;64803;52.356;5.310;2023-02-24T10:07:45;101118.41;;;5.31;100.00
75933;BME280;64803;52.356;5.310;2023-02-24T10:10:34;101097.53;;;5.36;100.00
75933;BME280;64803;52.356;5.310;2023-02-24T10:13:13;101115.63;;;5.42;100.00
75933;BME280;64803;52.356;5.310;2023-02-24T10:15:44;101101.88;;;5.46;100.00
75933;BME280;64803;52.356;5.310;2023-02-24T10:27:06;101069.63;;;5.49;100.00
75933;BME280;64803;52.356;5.310;2023-02-24T10:34:59;101077.22;;;5.63;100.00
75933;BME280;64803;52.356;5.310;2023-02-24T10:37:27;101069.91;;;5.65;100.00
75933;BME280;64803;52.356;5.310;2023-02-24T10:39:59;101067.66;;;5.70;100.00
75933;BME280;64803;52.356;5.310;2023-02-24T10:42:30;101070.06;;;5.73;100.00
75933;BME280;64803;52.356;5.310;2023-02-24T10:45:24;101067.81;;;5.79;100.00
75933;BME280;64803;52.356;5.310;2023-02-24T10:47:53;101053.22;;;5.63;100.00
75933;BME280;64803;52.356;5.310;2023-02-24T10:53:21;101059.53;;;5.91;100.00
75933;BME280;64803;52.356;5.310;2023-02-24T10:56:05;101055.31;;;6.08;100.00
75933;BME280;64803;52.356;5.310;2023-02-24T10:59:03;101052.63;;;6.08;100.00
75933;BME280;64803;52.356;5.310;2023-02-24T11:02:26;101048.97;;;6.09;100.00
75933;BME280;64803;52.356;5.310;2023-02-24T11:05:04;101053.59;;;6.26;100.00
75933;BME280;64803;52.356;5.310;2023-02-24T11:07:41;101049.34;;;6.33;100.00
75933;BME280;64803;52.356;5.310;2023-02-24T11:10:22;101048.19;;;6.45;100.00
75933;BME280;64803;52.356;5.310;2023-02-24T11:12:59;101005.28;;;6.29;100.00
75933;BME280;64803;52.356;5.310;2023-02-24T11:15:50;101049.44;;;6.68;100.00
75933;BME280;64803;52.356;5.310;2023-02-24T11:18:37;101018.97;;;6.70;100.00
75933;BME280;64803;52.356;5.310;2023-02-24T11:21:11;101026.78;;;6.99;100.00
75933;BME280;64803;52.356;5.310;2023-02-24T11:23:41;100905.03;;;6.36;100.00
75933;BME280;64803;52.356;5.310;2023-02-24T11:26:17;101028.03;;;7.22;100.00
75933;BME280;64803;52.356;5.310;2023-02-24T11:34:19;101025.28;;;7.67;100.00
75933;BME280;64803;52.356;5.310;2023-02-24T11:41:56;101003.16;;;7.82;100.00
75933;BME280;64803;52.356;5.310;2023-02-24T11:44:44;100991.78;;;7.80;100.00
75933;BME280;64803;52.356;5.310;2023-02-24T11:47:16;101024.00;;;7.96;100.00
75933;BME280;64803;52.356;5.310;2023-02-24T11:50:01;101019.03;;;8.10;100.00
75933;BME280;64803;52.356;5.310;2023-02-24T11:52:36;101001.72;;;8.22;100.00
75933;BME280;64803;52.356;5.310;2023-02-24T11:55:13;100990.50;;;8.44;100.00
75933;BME280;64803;52.356;5.310;2023-02-24T11:57:45;101001.56;;;8.49;100.00
75933;BME280;64803;52.356;5.310;2023-02-24T12:00:17;101003.91;;;8.44;99.58
75933;BME280;64803;52.356;5.310;2023-02-24T12:03:12;100988.50;;;8.46;100.00
75933;BME280;64803;52.356;5.310;2023-02-24T12:05:42;100990.47;;;8.36;98.17
75933;BME280;64803;52.356;5.310;2023-02-24T12:11:02;100986.50;;;8.48;97.02
75933;BME280;64803;52.356;5.310;2023-02-24T12:21:05;100960.06;;;8.45;94.70
75933;BME280;64803;52.356;5.310;2023-02-24T12:23:36;100993.84;;;8.46;94.39
75933;BME280;64803;52.356;5.310;2023-02-24T12:26:34;100973.44;;;8.37;96.02
75933;BME280;64803;52.356;5.310;2023-02-24T12:35:07;100970.56;;;8.13;96.86
75933;BME280;64803;52.356;5.310;2023-02-24T12:48:54;100953.41;;;8.57;94.03
75933;BME280;64803;52.356;5.310;2023-02-24T12:56:51;100941.56;;;8.75;92.29
75933;BME280;64803;52.356;5.310;2023-02-24T12:59:23;100942.94;;;8.71;93.73
75933;BME280;64803;52.356;5.310;2023-02-24T13:01:52;100940.72;;;8.67;94.10
75933;BME280;64803;52.356;5.310;2023-02-24T13:04:32;100931.31;;;8.47;93.86
75933;BME280;64803;52.356;5.310;2023-02-24T13:07:21;100926.31;;;8.60;93.67
75933;BME280;64803;52.356;5.310;2023-02-24T13:10:16;100925.38;;;8.77;94.99
75933;BME280;64803;52.356;5.310;2023-02-24T13:12:56;100932.00;;;8.57;92.01
75933;BME280;64803;52.356;5.310;2023-02-24T13:15:27;100955.81;;;8.26;96.63
75933;BME280;64803;52.356;5.310;2023-02-24T13:17:56;100971.78;;;7.24;100.00
75933;BME280;64803;52.356;5.310;2023-02-24T13:20:30;100976.34;;;6.34;100.00
75933;BME280;64803;52.356;5.310;2023-02-24T13:22:58;100954.84;;;6.08;100.00
75933;BME280;64803;52.356;5.310;2023-02-24T13:25:31;100962.69;;;6.10;100.00
75933;BME280;64803;52.356;5.310;2023-02-24T13:28:03;100957.38;;;6.10;100.00
75933;BME280;64803;52.356;5.310;2023-02-24T13:30:41;100950.16;;;6.20;100.00
75933;BME280;64803;52.356;5.310;2023-02-24T13:35:45;100954.00;;;6.35;100.00
75933;BME280;64803;52.356;5.310;2023-02-24T13:41:48;100954.38;;;6.67;100.00
75933;BME280;64803;52.356;5.310;2023-02-24T13:47:15;100932.97;;;6.94;100.00
75933;BME280;64803;52.356;5.310;2023-02-24T13:49:56;100924.03;;;7.03;100.00
75933;BME280;64803;52.356;5.310;2023-02-24T13:52:44;100956.09;;;7.03;100.00
75933;BME280;64803;52.356;5.310;2023-02-24T13:55:19;100934.03;;;7.01;100.00
75933;BME280;64803;52.356;5.310;2023-02-24T13:58:04;100884.38;;;6.73;100.00
75933;BME280;64803;52.356;5.310;2023-02-24T14:03:31;100930.38;;;7.02;100.00
75933;BME280;64803;52.356;5.310;2023-02-24T14:05:59;100912.81;;;7.17;100.00
75933;BME280;64803;52.356;5.310;2023-02-24T14:08:34;100929.41;;;7.46;100.00
75933;BME280;64803;52.356;5.310;2023-02-24T14:11:02;100929.19;;;7.65;100.00
75933;BME280;64803;52.356;5.310;2023-02-24T14:13:31;100914.69;;;7.68;98.40
75933;BME280;64803;52.356;5.310;2023-02-24T14:16:00;100917.19;;;7.69;95.53
75933;BME280;64803;52.356;5.310;2023-02-24T14:18:29;100913.59;;;7.78;95.57
75933;BME280;64803;52.356;5.310;2023-02-24T14:20:57;100816.06;;;7.23;93.95
75933;BME280;64803;52.356;5.310;2023-02-24T14:23:29;100919.94;;;7.77;90.15
75933;BME280;64803;52.356;5.310;2023-02-24T14:26:05;100914.09;;;7.82;92.64
75933;BME280;64803;52.356;5.310;2023-02-24T14:28:35;100903.97;;;7.93;92.93
75933;BME280;64803;52.356;5.310;2023-02-24T14:31:21;100900.47;;;7.93;92.19
75933;BME280;64803;52.356;5.310;2023-02-24T14:33:56;100909.97;;;7.87;94.11
75933;BME280;64803;52.356;5.310;2023-02-24T14:36:27;100888.75;;;7.60;92.04
75933;BME280;64803;52.356;5.310;2023-02-24T14:39:06;100940.16;;;7.54;93.77
75933;BME280;64803;52.356;5.310;2023-02-24T14:41:33;100923.06;;;7.47;95.09
75933;BME280;64803;52.356;5.310;2023-02-24T14:44:07;100910.13;;;7.35;98.24
75933;BME280;64803;52.356;5.310;2023-02-24T14:46:44;100899.78;;;7.14;99.76
75933;BME280;64803;52.356;5.310;2023-02-24T14:49:22;100910.47;;;7.14;100.00
75933;BME280;64803;52.356;5.310;2023-02-24T14:51:52;100908.56;;;6.89;99.09
75933;BME280;64803;52.356;5.310;2023-02-24T14:54:28;100920.63;;;6.93;100.00
75933;BME280;64803;52.356;5.310;2023-02-24T14:56:58;100896.66;;;7.01;98.55
75933;BME280;64803;52.356;5.310;2023-02-24T14:59:34;100913.13;;;7.14;100.00
75933;BME280;64803;52.356;5.310;2023-02-24T15:02:04;100902.97;;;7.18;99.56
75933;BME280;64803;52.356;5.310;2023-02-24T15:04:37;100896.25;;;7.14;100.00
75933;BME280;64803;52.356;5.310;2023-02-24T15:07:15;100917.19;;;7.01;100.00
75933;BME280;64803;52.356;5.310;2023-02-24T15:09:43;100915.66;;;6.63;100.00
75933;BME280;64803;52.356;5.310;2023-02-24T15:12:31;100935.81;;;6.21;100.00
75933;BME280;64803;52.356;5.310;2023-02-24T15:15:00;100914.91;;;5.99;100.00
75933;BME280;64803;52.356;5.310;2023-02-24T15:17:28;100840.06;;;5.46;100.00